sensor_id;sensor_type;location;lat;lon;timestamp;pressure;altitude;pressure_sealevel;temperature;humidity
19672;BME280;9983;51.114;13.788;2023-07-13T00:03:36;99038.94;;;23.13;60.99
19672;BME280;9983;51.114;13.788;2023-07-13T00:08:36;99040.75;;;23.55;57.01
19672;BME280;9983;51.114;13.788;2023-07-13T00:13:36;99040.06;;;23.17;57.81
19672;BME280;9983;51.114;13.788;2023-07-13T00:18:39;99041.22;;;22.74;60.25
19672;BME280;9983;51.114;13.788;2023-07-13T00:23:41;99046.72;;;22.47;60.97
19672;BME280;9983;51.114;13.788;2023-07-13T00:28:42;99052.41;;;23.25;58.06
19672;BME280;9983;51.114;13.788;2023-07-13T00:33:43;99058.75;;;22.51;61.28
19672;BME280;9983;51.114;13.788;2023-07-13T00:38:43;99078.25;;;22.28;62.89
19672;BME280;9983;51.114;13.788;2023-07-13T00:43:44;99088.44;;;22.06;65.43
19672;BME280;9983;51.114;13.788;2023-07-13T00:48:46;99112.97;;;22.01;65.67
19672;BME280;9983;51.114;13.788;2023-07-13T00:53:47;99134.16;;;22.47;64.47
19672;BME280;9983;51.114;13.788;2023-07-13T00:58:47;99130.59;;;22.79;62.42
19672;BME280;9983;51.114;13.788;2023-07-13T01:03:48;99117.03;;;22.25;66.42
19672;BME280;9983;51.114;13.788;2023-07-13T01:08:48;99117.66;;;22.37;68.68
19672;BME280;9983;51.114;13.788;2023-07-13T01:13:49;99084.38;;;22.77;69.29
19672;BME280;9983;51.114;13.788;2023-07-13T01:18:49;99047.59;;;22.95;67.82
19672;BME280;9983;51.114;13.788;2023-07-13T01:23:50;99068.84;;;22.83;67.25
19672;BME280;9983;51.114;13.788;2023-07-13T01:28:50;99086.63;;;21.89;71.46
19672;BME280;9983;51.114;13.788;2023-07-13T01:33:51;99075.53;;;22.28;71.42
19672;BME280;9983;51.114;13.788;2023-07-13T01:38:51;99083.38;;;21.44;77.28
19672;BME280;9983;51.114;13.788;2023-07-13T01:43:52;99082.53;;;21.65;77.03
19672;BME280;9983;51.114;13.788;2023-07-13T01:48:52;99082.00;;;21.41;78.00
19672;BME280;9983;51.114;13.788;2023-07-13T01:53:52;99079.25;;;21.19;79.01
19672;BME280;9983;51.114;13.788;2023-07-13T01:58:52;99073.44;;;20.56;81.71
19672;BME280;9983;51.114;13.788;2023-07-13T02:03:53;99079.25;;;20.81;82.83
19672;BME280;9983;51.114;13.788;2023-07-13T02:08:54;99075.31;;;21.54;77.84
19672;BME280;9983;51.114;13.788;2023-07-13T02:13:54;99061.59;;;21.22;80.65
19672;BME280;9983;51.114;13.788;2023-07-13T02:18:55;99068.69;;;20.68;84.21
19672;BME280;9983;51.114;13.788;2023-07-13T02:23:55;99067.00;;;20.45;86.53
19672;BME280;9983;51.114;13.788;2023-07-13T02:28:57;99075.19;;;21.00;83.62
19672;BME280;9983;51.114;13.788;2023-07-13T02:33:57;99080.34;;;20.80;84.45
19672;BME280;9983;51.114;13.788;2023-07-13T02:39:00;99081.69;;;20.44;87.02
19672;BME280;9983;51.114;13.788;2023-07-13T02:44:02;99085.25;;;21.00;83.64
19672;BME280;9983;51.114;13.788;2023-07-13T02:49:06;99086.47;;;20.37;87.78
19672;BME280;9983;51.114;13.788;2023-07-13T02:54:06;99088.44;;;20.75;85.96
19672;BME280;9983;51.114;13.788;2023-07-13T02:59:08;99084.06;;;20.07;91.62
19672;BME280;9983;51.114;13.788;2023-07-13T03:04:09;99096.06;;;20.39;90.27
19672;BME280;9983;51.114;13.788;2023-07-13T03:09:09;99090.38;;;19.96;92.57
19672;BME280;9983;51.114;13.788;2023-07-13T03:14:09;99089.34;;;19.85;94.32
19672;BME280;9983;51.114;13.788;2023-07-13T03:19:09;99090.72;;;19.99;93.00
19672;BME280;9983;51.114;13.788;2023-07-13T03:24:11;99101.63;;;20.16;91.36
19672;BME280;9983;51.114;13.788;2023-07-13T03:29:11;99099.75;;;20.33;90.08
19672;BME280;9983;51.114;13.788;2023-07-13T03:34:12;99090.91;;;20.60;87.99
19672;BME280;9983;51.114;13.788;2023-07-13T03:39:12;99104.03;;;19.84;93.82
19672;BME280;9983;51.114;13.788;2023-07-13T03:44:13;99118.50;;;20.47;90.00
19672;BME280;9983;51.114;13.788;2023-07-13T03:49:13;99115.97;;;20.12;91.46
19672;BME280;9983;51.114;13.788;2023-07-13T03:54:13;99110.94;;;20.20;91.18
19672;BME280;9983;51.114;13.788;2023-07-13T03:59:14;99123.78;;;20.53;87.85
19672;BME280;9983;51.114;13.788;2023-07-13T04:04:14;99128.31;;;20.48;89.76
19672;BME280;9983;51.114;13.788;2023-07-13T04:09:15;99144.97;;;20.06;92.81
19672;BME280;9983;51.114;13.788;2023-07-13T04:14:16;99148.06;;;20.26;91.90
19672;BME280;9983;51.114;13.788;2023-07-13T04:19:16;99157.75;;;20.51;89.65
19672;BME280;9983;51.114;13.788;2023-07-13T04:24:17;99159.75;;;20.38;91.90
19672;BME280;9983;51.114;13.788;2023-07-13T04:29:17;99152.81;;;20.48;90.55
19672;BME280;9983;51.114;13.788;2023-07-13T04:34:17;99159.03;;;20.15;94.58
19672;BME280;9983;51.114;13.788;2023-07-13T04:39:17;99159.81;;;20.77;89.96
19672;BME280;9983;51.114;13.788;2023-07-13T04:44:18;99162.38;;;21.00;87.99
19672;BME280;9983;51.114;13.788;2023-07-13T04:49:18;99170.75;;;20.15;94.46
19672;BME280;9983;51.114;13.788;2023-07-13T04:54:18;99162.50;;;21.10;88.53
19672;BME280;9983;51.114;13.788;2023-07-13T04:59:18;99176.56;;;20.35;94.44
19672;BME280;9983;51.114;13.788;2023-07-13T05:04:19;99176.25;;;20.49;93.59
19672;BME280;9983;51.114;13.788;2023-07-13T05:09:19;99161.06;;;20.53;94.64
19672;BME280;9983;51.114;13.788;2023-07-13T05:14:19;99169.97;;;20.98;92.36
19672;BME280;9983;51.114;13.788;2023-07-13T05:19:20;99165.25;;;21.92;85.05
19672;BME280;9983;51.114;13.788;2023-07-13T05:24:21;99166.22;;;22.30;76.32
19672;BME280;9983;51.114;13.788;2023-07-13T05:29:21;99170.03;;;22.29;74.32
19672;BME280;9983;51.114;13.788;2023-07-13T05:34:22;99167.44;;;22.44;78.66
19672;BME280;9983;51.114;13.788;2023-07-13T05:39:22;99181.66;;;22.46;71.81
19672;BME280;9983;51.114;13.788;2023-07-13T05:44:22;99176.91;;;22.95;70.13
19672;BME280;9983;51.114;13.788;2023-07-13T05:49:23;99183.31;;;22.47;71.70
19672;BME280;9983;51.114;13.788;2023-07-13T05:54:23;99177.94;;;22.57;70.94
19672;BME280;9983;51.114;13.788;2023-07-13T05:59:24;99182.09;;;22.33;69.84
19672;BME280;9983;51.114;13.788;2023-07-13T06:04:25;99173.50;;;22.51;67.97
19672;BME280;9983;51.114;13.788;2023-07-13T06:09:25;99173.06;;;22.59;67.34
19672;BME280;9983;51.114;13.788;2023-07-13T06:14:25;99182.84;;;22.55;65.00
19672;BME280;9983;51.114;13.788;2023-07-13T06:19:26;99189.00;;;22.73;64.11
19672;BME280;9983;51.114;13.788;2023-07-13T06:24:26;99191.41;;;22.96;63.16
19672;BME280;9983;51.114;13.788;2023-07-13T06:29:27;99198.94;;;23.21;61.32
19672;BME280;9983;51.114;13.788;2023-07-13T06:34:27;99192.97;;;23.71;61.87
19672;BME280;9983;51.114;13.788;2023-07-13T06:39:27;99186.34;;;23.57;61.08
19672;BME280;9983;51.114;13.788;2023-07-13T06:44:27;99194.69;;;23.92;59.23
19672;BME280;9983;51.114;13.788;2023-07-13T06:49:28;99212.19;;;23.86;56.87
19672;BME280;9983;51.114;13.788;2023-07-13T06:54:28;99216.13;;;24.15;54.85
19672;BME280;9983;51.114;13.788;2023-07-13T06:59:28;99226.06;;;24.32;54.20
19672;BME280;9983;51.114;13.788;2023-07-13T07:04:28;99225.41;;;24.04;54.26
19672;BME280;9983;51.114;13.788;2023-07-13T07:09:29;99236.00;;;24.68;52.66
19672;BME280;9983;51.114;13.788;2023-07-13T07:14:31;99237.63;;;24.59;53.67
19672;BME280;9983;51.114;13.788;2023-07-13T07:19:31;99231.59;;;24.52;53.63
19672;BME280;9983;51.114;13.788;2023-07-13T07:24:32;99234.91;;;24.84;52.58
19672;BME280;9983;51.114;13.788;2023-07-13T07:29:32;99249.16;;;24.86;50.68
19672;BME280;9983;51.114;13.788;2023-07-13T07:34:32;99237.66;;;25.20;50.58
19672;BME280;9983;51.114;13.788;2023-07-13T07:39:33;99245.91;;;24.94;52.07
19672;BME280;9983;51.114;13.788;2023-07-13T07:44:33;99236.03;;;25.14;50.98
19672;BME280;9983;51.114;13.788;2023-07-13T07:49:35;99235.44;;;25.42;48.52
19672;BME280;9983;51.114;13.788;2023-07-13T07:54:35;99239.88;;;25.18;48.57
19672;BME280;9983;51.114;13.788;2023-07-13T07:59:36;99242.06;;;25.26;46.56
19672;BME280;9983;51.114;13.788;2023-07-13T08:04:37;99241.25;;;25.05;47.63
19672;BME280;9983;51.114;13.788;2023-07-13T08:09:37;99247.00;;;24.99;48.63
19672;BME280;9983;51.114;13.788;2023-07-13T08:14:37;99248.06;;;23.85;51.37
19672;BME280;9983;51.114;13.788;2023-07-13T08:19:38;99256.28;;;24.77;48.82
19672;BME280;9983;51.114;13.788;2023-07-13T08:24:38;99255.22;;;25.24;48.49
19672;BME280;9983;51.114;13.788;2023-07-13T08:29:39;99267.50;;;24.71;49.62
19672;BME280;9983;51.114;13.788;2023-07-13T08:34:40;99254.69;;;25.27;47.86
19672;BME280;9983;51.114;13.788;2023-07-13T08:39:40;99257.31;;;25.93;47.36
19672;BME280;9983;51.114;13.788;2023-07-13T08:45:28;99251.34;;;25.65;44.98
19672;BME280;9983;51.114;13.788;2023-07-13T08:50:36;99257.84;;;25.90;43.42
19672;BME280;9983;51.114;13.788;2023-07-13T08:55:41;99245.84;;;25.65;45.67
19672;BME280;9983;51.114;13.788;2023-07-13T09:00:49;99257.31;;;25.93;43.60
19672;BME280;9983;51.114;13.788;2023-07-13T09:05:58;99261.09;;;26.07;42.31
19672;BME280;9983;51.114;13.788;2023-07-13T09:11:28;99255.41;;;25.78;42.01
19672;BME280;9983;51.114;13.788;2023-07-13T09:16:33;99276.72;;;26.12;42.75
19672;BME280;9983;51.114;13.788;2023-07-13T09:21:38;99266.38;;;26.53;41.68
19672;BME280;9983;51.114;13.788;2023-07-13T09:26:41;99269.00;;;26.73;39.83
19672;BME280;9983;51.114;13.788;2023-07-13T09:31:44;99275.66;;;26.62;41.29
19672;BME280;9983;51.114;13.788;2023-07-13T09:36:46;99272.03;;;26.71;41.62
19672;BME280;9983;51.114;13.788;2023-07-13T09:41:53;99280.28;;;26.17;41.17
19672;BME280;9983;51.114;13.788;2023-07-13T09:46:55;99282.50;;;26.05;41.49
19672;BME280;9983;51.114;13.788;2023-07-13T09:52:00;99276.44;;;26.18;40.71
19672;BME280;9983;51.114;13.788;2023-07-13T09:57:08;99286.41;;;25.94;40.58
19672;BME280;9983;51.114;13.788;2023-07-13T10:02:29;99299.81;;;26.11;41.50
19672;BME280;9983;51.114;13.788;2023-07-13T10:07:31;99295.34;;;26.79;41.13
19672;BME280;9983;51.114;13.788;2023-07-13T10:12:36;99298.00;;;26.99;38.82
19672;BME280;9983;51.114;13.788;2023-07-13T10:17:37;99292.69;;;26.69;37.69
19672;BME280;9983;51.114;13.788;2023-07-13T10:22:45;99284.84;;;27.59;37.29
19672;BME280;9983;51.114;13.788;2023-07-13T10:27:50;99295.72;;;27.11;37.73
19672;BME280;9983;51.114;13.788;2023-07-13T10:32:52;99299.63;;;27.68;36.96
19672;BME280;9983;51.114;13.788;2023-07-13T10:37:56;99299.75;;;28.06;37.54
19672;BME280;9983;51.114;13.788;2023-07-13T10:42:59;99303.59;;;26.79;37.13
19672;BME280;9983;51.114;13.788;2023-07-13T10:48:01;99291.66;;;27.90;36.63
19672;BME280;9983;51.114;13.788;2023-07-13T10:53:17;99284.75;;;27.93;36.25
19672;BME280;9983;51.114;13.788;2023-07-13T10:58:22;99275.38;;;28.18;35.50
19672;BME280;9983;51.114;13.788;2023-07-13T11:03:23;99279.75;;;28.61;34.61
19672;BME280;9983;51.114;13.788;2023-07-13T11:08:35;99275.47;;;27.60;35.94
19672;BME280;9983;51.114;13.788;2023-07-13T11:13:56;99287.63;;;26.81;36.94
19672;BME280;9983;51.114;13.788;2023-07-13T11:34:15;99276.91;;;28.66;33.92
19672;BME280;9983;51.114;13.788;2023-07-13T11:39:28;99295.38;;;27.47;34.01
19672;BME280;9983;51.114;13.788;2023-07-13T11:44:33;99288.56;;;28.82;33.70
19672;BME280;9983;51.114;13.788;2023-07-13T11:49:42;99281.53;;;30.91;31.94
19672;BME280;9983;51.114;13.788;2023-07-13T11:54:51;99274.59;;;30.80;31.89
19672;BME280;9983;51.114;13.788;2023-07-13T11:59:55;99274.72;;;31.64;30.46
19672;BME280;9983;51.114;13.788;2023-07-13T12:04:56;99271.81;;;31.47;30.60
19672;BME280;9983;51.114;13.788;2023-07-13T12:10:34;99271.72;;;32.23;29.01
19672;BME280;9983;51.114;13.788;2023-07-13T12:15:39;99262.63;;;33.43;27.63
19672;BME280;9983;51.114;13.788;2023-07-13T12:20:39;99261.50;;;34.79;26.41
19672;BME280;9983;51.114;13.788;2023-07-13T12:25:40;99256.88;;;35.36;24.90
19672;BME280;9983;51.114;13.788;2023-07-13T12:30:40;99259.38;;;34.76;24.73
19672;BME280;9983;51.114;13.788;2023-07-13T12:35:46;99254.78;;;33.92;24.75
19672;BME280;9983;51.114;13.788;2023-07-13T12:40:49;99259.13;;;31.46;27.72
19672;BME280;9983;51.114;13.788;2023-07-13T12:45:59;99242.59;;;30.52;29.38
19672;BME280;9983;51.114;13.788;2023-07-13T12:51:00;99250.72;;;29.53;30.86
19672;BME280;9983;51.114;13.788;2023-07-13T12:56:03;99262.06;;;31.81;28.81
19672;BME280;9983;51.114;13.788;2023-07-13T13:01:04;99251.28;;;33.65;25.22
19672;BME280;9983;51.114;13.788;2023-07-13T13:06:20;99255.53;;;31.46;27.18
19672;BME280;9983;51.114;13.788;2023-07-13T13:11:23;99263.72;;;32.21;25.57
19672;BME280;9983;51.114;13.788;2023-07-13T13:16:29;99248.78;;;32.74;24.95
19672;BME280;9983;51.114;13.788;2023-07-13T13:21:31;99247.28;;;34.21;23.60
19672;BME280;9983;51.114;13.788;2023-07-13T13:26:32;99244.09;;;35.03;23.14
19672;BME280;9983;51.114;13.788;2023-07-13T13:31:33;99243.00;;;34.53;22.76
19672;BME280;9983;51.114;13.788;2023-07-13T13:36:34;99256.03;;;34.61;22.95
19672;BME280;9983;51.114;13.788;2023-07-13T13:41:34;99250.72;;;32.30;24.86
19672;BME280;9983;51.114;13.788;2023-07-13T13:46:35;99257.53;;;32.24;25.89
19672;BME280;9983;51.114;13.788;2023-07-13T13:51:35;99255.22;;;33.64;24.24
19672;BME280;9983;51.114;13.788;2023-07-13T13:56:36;99253.16;;;33.90;23.81
19672;BME280;9983;51.114;13.788;2023-07-13T14:01:36;99251.69;;;33.93;24.11
19672;BME280;9983;51.114;13.788;2023-07-13T14:06:37;99261.53;;;32.75;25.29
19672;BME280;9983;51.114;13.788;2023-07-13T14:11:39;99257.78;;;33.86;24.51
19672;BME280;9983;51.114;13.788;2023-07-13T14:16:42;99257.44;;;35.09;23.16
19672;BME280;9983;51.114;13.788;2023-07-13T14:21:46;99265.78;;;32.98;24.82
19672;BME280;9983;51.114;13.788;2023-07-13T14:26:47;99249.41;;;31.26;26.82
19672;BME280;9983;51.114;13.788;2023-07-13T14:31:48;99250.41;;;34.20;24.13
19672;BME280;9983;51.114;13.788;2023-07-13T14:36:48;99243.00;;;34.95;23.93
19672;BME280;9983;51.114;13.788;2023-07-13T14:41:55;99251.94;;;35.21;23.43
19672;BME280;9983;51.114;13.788;2023-07-13T14:46:57;99245.13;;;36.25;22.18
19672;BME280;9983;51.114;13.788;2023-07-13T14:52:01;99240.91;;;35.70;21.87
19672;BME280;9983;51.114;13.788;2023-07-13T14:57:01;99239.69;;;36.04;21.80
19672;BME280;9983;51.114;13.788;2023-07-13T15:02:02;99235.06;;;35.38;21.84
19672;BME280;9983;51.114;13.788;2023-07-13T15:07:02;99242.34;;;33.98;22.43
19672;BME280;9983;51.114;13.788;2023-07-13T15:12:03;99243.81;;;33.95;23.10
19672;BME280;9983;51.114;13.788;2023-07-13T15:17:27;99244.53;;;35.25;21.37
19672;BME280;9983;51.114;13.788;2023-07-13T15:22:31;99243.50;;;35.99;20.97
19672;BME280;9983;51.114;13.788;2023-07-13T15:27:31;99245.13;;;36.12;20.67
19672;BME280;9983;51.114;13.788;2023-07-13T15:32:32;99246.22;;;35.51;20.93
19672;BME280;9983;51.114;13.788;2023-07-13T15:37:32;99257.81;;;34.87;21.06
19672;BME280;9983;51.114;13.788;2023-07-13T15:42:32;99237.22;;;35.78;20.50
19672;BME280;9983;51.114;13.788;2023-07-13T15:47:33;99237.34;;;36.06;19.92
19672;BME280;9983;51.114;13.788;2023-07-13T15:52:33;99249.78;;;35.06;19.80
19672;BME280;9983;51.114;13.788;2023-07-13T15:57:33;99245.31;;;34.51;20.32
19672;BME280;9983;51.114;13.788;2023-07-13T16:02:33;99255.13;;;33.17;21.53
19672;BME280;9983;51.114;13.788;2023-07-13T16:07:34;99256.78;;;35.12;19.89
19672;BME280;9983;51.114;13.788;2023-07-13T16:12:34;99257.66;;;35.04;19.86
19672;BME280;9983;51.114;13.788;2023-07-13T16:17:34;99254.22;;;35.40;19.16
19672;BME280;9983;51.114;13.788;2023-07-13T16:22:34;99256.78;;;36.15;18.91
19672;BME280;9983;51.114;13.788;2023-07-13T16:27:35;99260.81;;;35.23;19.40
19672;BME280;9983;51.114;13.788;2023-07-13T16:32:35;99261.88;;;34.69;19.68
19672;BME280;9983;51.114;13.788;2023-07-13T16:37:35;99267.19;;;34.61;20.61
19672;BME280;9983;51.114;13.788;2023-07-13T16:42:36;99268.34;;;33.55;20.99
19672;BME280;9983;51.114;13.788;2023-07-13T16:47:37;99278.84;;;31.76;22.83
19672;BME280;9983;51.114;13.788;2023-07-13T16:52:41;99278.59;;;30.11;24.19
19672;BME280;9983;51.114;13.788;2023-07-13T16:57:43;99278.78;;;30.14;24.49
19672;BME280;9983;51.114;13.788;2023-07-13T17:02:44;99286.97;;;30.06;25.18
19672;BME280;9983;51.114;13.788;2023-07-13T17:07:44;99299.59;;;29.52;25.35
19672;BME280;9983;51.114;13.788;2023-07-13T17:12:46;99309.53;;;29.34;26.02
19672;BME280;9983;51.114;13.788;2023-07-13T17:17:48;99307.91;;;29.33;26.09
19672;BME280;9983;51.114;13.788;2023-07-13T17:22:52;99298.38;;;29.58;25.78
19672;BME280;9983;51.114;13.788;2023-07-13T17:27:53;99305.53;;;29.59;25.94
19672;BME280;9983;51.114;13.788;2023-07-13T17:32:53;99307.06;;;29.33;26.46
19672;BME280;9983;51.114;13.788;2023-07-13T17:37:56;99305.56;;;29.08;26.10
19672;BME280;9983;51.114;13.788;2023-07-13T17:42:57;99311.91;;;29.09;26.15
19672;BME280;9983;51.114;13.788;2023-07-13T17:47:58;99314.22;;;29.20;26.30
19672;BME280;9983;51.114;13.788;2023-07-13T17:52:59;99317.09;;;29.29;26.36
19672;BME280;9983;51.114;13.788;2023-07-13T17:58:02;99327.06;;;29.11;27.19
19672;BME280;9983;51.114;13.788;2023-07-13T18:03:08;99330.88;;;28.73;27.41
19672;BME280;9983;51.114;13.788;2023-07-13T18:08:31;99332.34;;;28.46;27.53
19672;BME280;9983;51.114;13.788;2023-07-13T18:13:33;99328.13;;;28.30;27.96
19672;BME280;9983;51.114;13.788;2023-07-13T18:18:39;99334.84;;;28.24;27.89
19672;BME280;9983;51.114;13.788;2023-07-13T18:23:40;99334.31;;;28.22;28.01
19672;BME280;9983;51.114;13.788;2023-07-13T18:28:42;99340.44;;;28.19;27.96
19672;BME280;9983;51.114;13.788;2023-07-13T18:33:42;99339.16;;;28.30;28.34
19672;BME280;9983;51.114;13.788;2023-07-13T18:38:46;99344.91;;;28.10;32.18
19672;BME280;9983;51.114;13.788;2023-07-13T18:43:48;99352.47;;;27.70;33.34
19672;BME280;9983;51.114;13.788;2023-07-13T18:48:50;99358.69;;;27.47;33.49
19672;BME280;9983;51.114;13.788;2023-07-13T18:53:51;99363.38;;;27.12;34.00
19672;BME280;9983;51.114;13.788;2023-07-13T18:58:51;99369.09;;;26.72;35.83
19672;BME280;9983;51.114;13.788;2023-07-13T19:03:52;99381.84;;;26.48;35.55
19672;BME280;9983;51.114;13.788;2023-07-13T19:08:52;99390.25;;;25.66;35.49
19672;BME280;9983;51.114;13.788;2023-07-13T19:13:52;99391.56;;;25.28;36.11
19672;BME280;9983;51.114;13.788;2023-07-13T19:18:54;99398.41;;;25.06;37.98
19672;BME280;9983;51.114;13.788;2023-07-13T19:23:54;99401.59;;;24.77;38.35
19672;BME280;9983;51.114;13.788;2023-07-13T19:28:56;99410.31;;;24.64;38.74
19672;BME280;9983;51.114;13.788;2023-07-13T19:33:57;99420.31;;;23.96;40.14
19672;BME280;9983;51.114;13.788;2023-07-13T19:38:58;99424.16;;;23.95;39.98
19672;BME280;9983;51.114;13.788;2023-07-13T19:43:58;99435.31;;;23.25;41.48
19672;BME280;9983;51.114;13.788;2023-07-13T19:49:03;99439.47;;;23.32;42.09
19672;BME280;9983;51.114;13.788;2023-07-13T19:54:13;99439.34;;;22.74;43.78
19672;BME280;9983;51.114;13.788;2023-07-13T19:59:29;99448.38;;;22.96;43.78
19672;BME280;9983;51.114;13.788;2023-07-13T20:04:30;99452.50;;;22.77;43.50
19672;BME280;9983;51.114;13.788;2023-07-13T20:09:31;99453.19;;;22.45;45.19
19672;BME280;9983;51.114;13.788;2023-07-13T20:14:34;99455.47;;;22.53;45.23
19672;BME280;9983;51.114;13.788;2023-07-13T20:19:35;99471.94;;;21.86;47.39
19672;BME280;9983;51.114;13.788;2023-07-13T20:24:35;99478.31;;;21.75;47.78
19672;BME280;9983;51.114;13.788;2023-07-13T20:29:35;99478.34;;;21.47;49.02
19672;BME280;9983;51.114;13.788;2023-07-13T20:34:38;99478.03;;;21.03;51.10
19672;BME280;9983;51.114;13.788;2023-07-13T20:39:38;99484.47;;;21.54;49.73
19672;BME280;9983;51.114;13.788;2023-07-13T20:44:39;99484.16;;;21.10;51.00
19672;BME280;9983;51.114;13.788;2023-07-13T20:49:39;99487.56;;;20.89;51.54
19672;BME280;9983;51.114;13.788;2023-07-13T20:54:39;99504.34;;;20.46;52.96
19672;BME280;9983;51.114;13.788;2023-07-13T20:59:45;99493.41;;;20.81;52.45
19672;BME280;9983;51.114;13.788;2023-07-13T21:04:46;99504.66;;;20.73;52.98
19672;BME280;9983;51.114;13.788;2023-07-13T21:09:46;99520.09;;;21.07;52.67
19672;BME280;9983;51.114;13.788;2023-07-13T21:14:49;99527.03;;;21.27;51.26
19672;BME280;9983;51.114;13.788;2023-07-13T21:19:50;99528.91;;;21.83;48.20
19672;BME280;9983;51.114;13.788;2023-07-13T21:24:51;99541.63;;;22.06;47.45
19672;BME280;9983;51.114;13.788;2023-07-13T21:29:51;99542.09;;;22.36;46.75
19672;BME280;9983;51.114;13.788;2023-07-13T21:34:53;99540.25;;;22.58;46.57
19672;BME280;9983;51.114;13.788;2023-07-13T21:39:53;99552.97;;;22.69;46.04
19672;BME280;9983;51.114;13.788;2023-07-13T21:44:54;99554.38;;;22.72;46.16
19672;BME280;9983;51.114;13.788;2023-07-13T21:49:54;99563.41;;;22.89;46.35
19672;BME280;9983;51.114;13.788;2023-07-13T21:54:54;99579.34;;;22.76;46.56
19672;BME280;9983;51.114;13.788;2023-07-13T21:59:55;99575.50;;;23.15;46.14
19672;BME280;9983;51.114;13.788;2023-07-13T22:04:55;99574.78;;;23.03;47.75
19672;BME280;9983;51.114;13.788;2023-07-13T22:09:55;99584.47;;;22.55;49.02
19672;BME280;9983;51.114;13.788;2023-07-13T22:14:56;99579.00;;;22.22;50.48
19672;BME280;9983;51.114;13.788;2023-07-13T22:19:56;99589.09;;;22.38;50.79
19672;BME280;9983;51.114;13.788;2023-07-13T22:24:56;99585.59;;;21.92;51.20
19672;BME280;9983;51.114;13.788;2023-07-13T22:29:57;99594.25;;;21.61;53.10
19672;BME280;9983;51.114;13.788;2023-07-13T22:34:57;99584.50;;;20.62;55.33
19672;BME280;9983;51.114;13.788;2023-07-13T22:39:57;99592.19;;;20.53;56.96
19672;BME280;9983;51.114;13.788;2023-07-13T22:44:57;99597.19;;;20.03;58.84
19672;BME280;9983;51.114;13.788;2023-07-13T22:49:58;99599.25;;;19.78;60.26
19672;BME280;9983;51.114;13.788;2023-07-13T22:54:58;99607.72;;;19.99;59.84
19672;BME280;9983;51.114;13.788;2023-07-13T22:59:58;99607.44;;;19.59;61.52
19672;BME280;9983;51.114;13.788;2023-07-13T23:04:59;99607.78;;;19.33;62.10
19672;BME280;9983;51.114;13.788;2023-07-13T23:10:23;99617.88;;;19.26;62.48
19672;BME280;9983;51.114;13.788;2023-07-13T23:15:23;99618.31;;;19.59;61.33
19672;BME280;9983;51.114;13.788;2023-07-13T23:20:33;99621.84;;;19.12;63.51
19672;BME280;9983;51.114;13.788;2023-07-13T23:25:34;99617.13;;;19.19;63.16
19672;BME280;9983;51.114;13.788;2023-07-13T23:30:35;99619.41;;;19.40;62.57
19672;BME280;9983;51.114;13.788;2023-07-13T23:35:36;99624.16;;;19.26;62.97
19672;BME280;9983;51.114;13.788;2023-07-13T23:40:36;99628.00;;;19.19;64.06
19672;BME280;9983;51.114;13.788;2023-07-13T23:45:37;99615.63;;;19.41;63.51
19672;BME280;9983;51.114;13.788;2023-07-13T23:50:38;99619.66;;;18.59;66.57
19672;BME280;9983;51.114;13.788;2023-07-13T23:55:40;99613.81;;;19.17;65.18
